createdAt,value
2022-11-14T00:01:09.167Z,5.75
2022-11-14T00:02:31.953Z,5.77
2022-11-14T00:03:54.049Z,5.73
2022-11-14T00:05:16.610Z,5.70
2022-11-14T00:06:38.906Z,5.70
2022-11-14T00:08:00.352Z,5.69
2022-11-14T00:09:26.701Z,5.67
2022-11-14T00:10:49.572Z,5.63
2022-11-14T00:12:12.811Z,5.60
2022-11-14T00:13:35.088Z,5.59
2022-11-14T00:14:56.581Z,5.58
2022-11-14T00:16:18.930Z,5.59
2022-11-14T00:18:14.989Z,5.59
2022-11-14T00:19:36.109Z,5.57
2022-11-14T00:20:58.307Z,5.59
2022-11-14T00:22:19.528Z,5.63
2022-11-14T00:23:41.720Z,5.64
2022-11-14T00:25:02.890Z,5.64
2022-11-14T00:26:25.156Z,5.62
2022-11-14T00:27:47.762Z,5.60
2022-11-14T00:29:12.371Z,5.61
2022-11-14T00:30:34.821Z,5.59
2022-11-14T00:31:57.129Z,5.62
2022-11-14T00:33:21.425Z,5.63
2022-11-14T00:34:43.909Z,5.63
2022-11-14T00:36:06.863Z,5.64
2022-11-14T00:37:28.257Z,5.65
2022-11-14T00:38:54.241Z,5.67
2022-11-14T00:40:16.480Z,5.69
2022-11-14T00:41:38.840Z,5.69
2022-11-14T00:43:02.798Z,5.71
2022-11-14T00:44:25.249Z,5.71
2022-11-14T00:45:48.288Z,5.71
2022-11-14T00:47:10.549Z,5.68
2022-11-14T00:48:32.027Z,5.66
2022-11-14T00:49:54.506Z,5.65
2022-11-14T00:51:16.901Z,5.65
2022-11-14T00:52:39.288Z,5.64
2022-11-14T00:54:01.605Z,5.64
2022-11-14T00:55:24.068Z,5.62
2022-11-14T00:56:45.428Z,5.61
2022-11-14T00:58:09.040Z,5.58
2022-11-14T00:59:30.522Z,5.57
2022-11-14T01:00:53.494Z,5.56
2022-11-14T01:02:15.943Z,5.53
2022-11-14T01:03:38.200Z,5.53
2022-11-14T01:05:00.804Z,5.55
2022-11-14T01:06:21.891Z,5.52
2022-11-14T01:07:44.088Z,5.51
2022-11-14T01:09:06.282Z,5.49
2022-11-14T01:10:27.636Z,5.52
2022-11-14T01:11:49.760Z,5.53
2022-11-14T01:13:14.198Z,5.55
2022-11-14T01:14:36.416Z,5.54
2022-11-14T01:16:02.261Z,5.56
2022-11-14T01:17:23.328Z,5.58
2022-11-14T01:18:45.400Z,5.57
2022-11-14T01:20:07.157Z,5.55
2022-11-14T01:21:29.279Z,5.54
2022-11-14T01:22:51.759Z,5.51
2022-11-14T01:24:12.929Z,5.49
2022-11-14T01:25:35.202Z,5.45
2022-11-14T01:26:57.839Z,5.45
2022-11-14T01:28:21.787Z,5.45
2022-11-14T01:29:43.159Z,5.44
2022-11-14T01:31:12.709Z,5.44
2022-11-14T01:32:35.141Z,5.43
2022-11-14T01:33:57.561Z,5.41
2022-11-14T01:35:19.192Z,5.39
2022-11-14T01:36:41.699Z,5.37
2022-11-14T01:38:02.891Z,5.35
2022-11-14T01:39:25.571Z,5.33
2022-11-14T01:40:47.920Z,5.32
2022-11-14T01:42:09.059Z,5.33
2022-11-14T01:43:34.240Z,5.32
2022-11-14T01:44:56.712Z,5.31
2022-11-14T01:46:23.297Z,5.30
2022-11-14T01:47:45.419Z,5.28
2022-11-14T01:49:15.416Z,5.26
2022-11-14T01:50:36.503Z,5.25
2022-11-14T01:52:02.797Z,5.22
2022-11-14T01:53:25.434Z,5.22
2022-11-14T01:54:50.081Z,5.20
2022-11-14T01:56:13.566Z,5.18
2022-11-14T01:57:38.007Z,5.16
2022-11-14T01:59:05.148Z,5.16
2022-11-14T02:00:26.517Z,5.17
2022-11-14T02:01:51.343Z,5.17
2022-11-14T02:03:14.311Z,5.16
2022-11-14T02:04:39.292Z,5.14
2022-11-14T02:06:01.128Z,5.15
2022-11-14T02:07:24.560Z,5.15
2022-11-14T02:08:45.937Z,5.15
2022-11-14T02:10:11.315Z,5.15
2022-11-14T02:11:37.961Z,5.13
2022-11-14T02:12:59.289Z,5.10
2022-11-14T02:14:23.319Z,5.10
2022-11-14T02:15:45.900Z,5.08
2022-11-14T02:17:28.390Z,5.09
2022-11-14T02:18:50.930Z,5.08
2022-11-14T02:20:22.220Z,5.10
2022-11-14T02:21:44.431Z,5.10
2022-11-14T02:23:05.699Z,5.09
2022-11-14T02:24:28.050Z,5.09
2022-11-14T02:25:49.430Z,5.08
2022-11-14T02:27:11.982Z,5.09
2022-11-14T02:28:34.152Z,5.10
2022-11-14T02:29:56.398Z,5.12
2022-11-14T02:31:18.958Z,5.14
2022-11-14T02:34:23.261Z,5.20
2022-11-14T02:35:47.720Z,5.22
2022-11-14T02:37:09.070Z,5.25
2022-11-14T02:38:31.963Z,5.26
2022-11-14T02:39:53.635Z,5.27
2022-11-14T02:41:16.739Z,5.27
2022-11-14T02:42:38.316Z,5.29
2022-11-14T02:44:00.459Z,5.30
2022-11-14T02:45:21.597Z,5.29
2022-11-14T02:46:43.837Z,5.29
2022-11-14T02:48:07.276Z,5.27
2022-11-14T02:49:29.418Z,5.26
2022-11-14T02:50:53.361Z,5.26
2022-11-14T02:52:14.381Z,5.24
2022-11-14T02:53:36.808Z,5.24
2022-11-14T02:54:58.019Z,5.21
2022-11-14T02:56:21.206Z,5.19
2022-11-14T02:57:42.846Z,5.21
2022-11-14T02:59:05.313Z,5.22
2022-11-14T03:00:28.297Z,5.22
2022-11-14T03:01:49.693Z,5.21
2022-11-14T03:03:11.844Z,5.21
2022-11-14T03:04:33.272Z,5.21
2022-11-14T03:06:01.947Z,5.17
2022-11-14T03:07:23.123Z,5.14
2022-11-14T03:08:45.597Z,5.09
2022-11-14T03:10:08.177Z,5.04
2022-11-14T03:11:33.599Z,4.99
2022-11-14T03:12:56.272Z,4.97
2022-11-14T03:14:18.778Z,4.96
2022-11-14T03:15:41.263Z,4.95
2022-11-14T03:17:02.788Z,4.93
2022-11-14T03:18:25.435Z,4.92
2022-11-14T03:19:47.941Z,4.90
2022-11-14T03:21:12.139Z,4.89
2022-11-14T03:22:34.470Z,4.89
2022-11-14T03:23:56.811Z,4.90
2022-11-14T03:25:19.453Z,4.91
2022-11-14T03:26:40.759Z,4.89
2022-11-14T03:28:02.787Z,4.89
2022-11-14T03:29:24.068Z,4.88
2022-11-14T03:30:48.001Z,4.87
2022-11-14T03:32:09.138Z,4.87
2022-11-14T03:33:31.527Z,4.85
2022-11-14T03:34:53.671Z,4.81
2022-11-14T03:36:16.548Z,4.77
2022-11-14T03:37:40.120Z,4.74
2022-11-14T03:39:11.262Z,4.74
2022-11-14T03:40:32.639Z,4.73
2022-11-14T03:41:54.801Z,4.74
2022-11-14T03:43:16.308Z,4.76
2022-11-14T03:44:38.872Z,4.77
2022-11-14T03:46:00.554Z,4.79
2022-11-14T03:47:22.643Z,4.80
2022-11-14T03:48:44.177Z,4.79
2022-11-14T03:50:07.636Z,4.77
2022-11-14T03:51:29.036Z,4.75
2022-11-14T03:52:51.489Z,4.77
2022-11-14T03:54:15.340Z,4.75
2022-11-14T03:55:37.128Z,4.76
2022-11-14T03:56:59.460Z,4.76
2022-11-14T03:58:21.044Z,4.73
2022-11-14T03:59:43.240Z,4.71
2022-11-14T04:01:05.793Z,4.67
2022-11-14T04:02:28.031Z,4.67
2022-11-14T04:03:50.109Z,4.66
2022-11-14T04:05:11.568Z,4.65
2022-11-14T04:06:36.410Z,4.66
2022-11-14T04:07:57.671Z,4.66
2022-11-14T04:09:21.512Z,4.65
2022-11-14T04:10:43.519Z,4.63
2022-11-14T04:12:10.064Z,4.60
2022-11-14T04:13:35.578Z,4.57
2022-11-14T04:14:58.479Z,4.56
2022-11-14T04:16:21.169Z,4.55
2022-11-14T04:17:42.618Z,4.55
2022-11-14T04:19:05.513Z,4.53
2022-11-14T04:20:27.699Z,4.53
2022-11-14T04:21:50.128Z,4.55
2022-11-14T04:23:11.516Z,4.57
2022-11-14T04:24:35.290Z,4.59
2022-11-14T04:25:57.085Z,4.61
2022-11-14T04:27:19.702Z,4.61
2022-11-14T04:28:41.784Z,4.62
2022-11-14T04:30:04.372Z,4.63
2022-11-14T04:31:27.028Z,4.64
2022-11-14T04:32:49.409Z,4.64
2022-11-14T04:34:12.111Z,4.65
2022-11-14T04:35:33.582Z,4.66
2022-11-14T04:36:55.900Z,4.69
2022-11-14T04:38:18.508Z,4.69
2022-11-14T04:39:42.052Z,4.71
2022-11-14T04:41:04.509Z,4.73
2022-11-14T04:42:26.492Z,4.74
2022-11-14T04:43:50.927Z,4.76
2022-11-14T04:45:13.901Z,4.78
2022-11-14T04:46:36.674Z,4.79
2022-11-14T04:47:57.850Z,4.78
2022-11-14T04:49:21.478Z,4.77
2022-11-14T04:50:43.641Z,4.76
2022-11-14T04:52:05.943Z,4.77
2022-11-14T04:53:28.320Z,4.76
2022-11-14T04:54:53.659Z,4.77
2022-11-14T04:56:16.062Z,4.76
2022-11-14T04:57:39.132Z,4.77
2022-11-14T04:59:00.793Z,4.77
2022-11-14T05:00:23.282Z,4.78
2022-11-14T05:01:45.753Z,4.78
2022-11-14T05:03:07.101Z,4.79
2022-11-14T05:04:29.594Z,4.80
2022-11-14T05:05:51.016Z,4.82
2022-11-14T05:07:13.858Z,4.83
2022-11-14T05:08:36.689Z,4.84
2022-11-14T05:10:01.044Z,4.85
2022-11-14T05:11:28.087Z,4.85
2022-11-14T05:12:54.929Z,4.84
2022-11-14T05:14:17.204Z,4.84
2022-11-14T05:15:38.376Z,4.83
2022-11-14T05:17:01.430Z,4.84
2022-11-14T05:18:23.979Z,4.85
2022-11-14T05:19:46.845Z,4.85
2022-11-14T05:21:11.921Z,4.83
2022-11-14T05:22:34.682Z,4.79
2022-11-14T05:23:55.875Z,4.76
2022-11-14T05:25:19.910Z,4.75
2022-11-14T05:26:42.500Z,4.74
2022-11-14T05:28:04.835Z,4.73
2022-11-14T05:29:26.316Z,4.73
2022-11-14T05:30:48.413Z,4.74
2022-11-14T05:32:15.062Z,4.75
2022-11-14T05:33:38.460Z,4.76
2022-11-14T05:35:00.639Z,4.78
2022-11-14T05:36:23.431Z,4.77
2022-11-14T05:37:45.730Z,4.77
2022-11-14T05:39:07.896Z,4.75
2022-11-14T05:40:31.530Z,4.73
2022-11-14T05:41:53.959Z,4.73
2022-11-14T05:43:16.451Z,4.72
2022-11-14T05:44:38.688Z,4.72
2022-11-14T05:46:01.128Z,4.69
2022-11-14T05:47:23.412Z,4.70
2022-11-14T05:48:46.193Z,4.68
2022-11-14T05:50:09.351Z,4.68
2022-11-14T05:51:31.620Z,4.67
2022-11-14T05:52:53.959Z,4.67
2022-11-14T05:54:16.499Z,4.67
2022-11-14T05:55:40.390Z,4.69
2022-11-14T05:57:02.749Z,4.72
2022-11-14T05:58:25.230Z,4.75
2022-11-14T05:59:47.769Z,4.76
2022-11-14T06:01:11.598Z,4.79
2022-11-14T06:02:34.179Z,4.82
2022-11-14T06:03:56.723Z,4.84
2022-11-14T06:05:18.954Z,4.86
2022-11-14T06:06:40.421Z,4.87
2022-11-14T06:08:02.902Z,4.89
2022-11-14T06:09:25.211Z,4.89
2022-11-14T06:10:48.825Z,4.89
2022-11-14T06:12:11.049Z,4.90
2022-11-14T06:13:33.982Z,4.90
2022-11-14T06:14:56.436Z,4.89
2022-11-14T06:16:20.173Z,4.88
2022-11-14T06:17:42.381Z,4.88
2022-11-14T06:19:05.570Z,4.89
2022-11-14T06:20:28.291Z,4.89
2022-11-14T06:21:50.742Z,4.90
2022-11-14T06:23:13.442Z,4.91
2022-11-14T06:24:35.622Z,4.92
2022-11-14T06:26:01.639Z,4.91
2022-11-14T06:27:23.868Z,4.90
2022-11-14T06:28:45.193Z,4.93
2022-11-14T06:30:08.161Z,4.95
2022-11-14T06:31:30.729Z,4.97
2022-11-14T06:32:58.653Z,4.99
2022-11-14T06:34:24.182Z,4.97
2022-11-14T06:35:46.612Z,4.96
2022-11-14T06:37:09.046Z,4.94
2022-11-14T06:38:33.204Z,4.94
2022-11-14T06:39:55.963Z,4.95
2022-11-14T06:41:20.875Z,4.95
2022-11-14T06:42:42.064Z,4.94
2022-11-14T06:44:04.113Z,4.94
2022-11-14T06:45:26.502Z,4.95
2022-11-14T06:46:48.910Z,4.94
2022-11-14T06:48:11.174Z,4.95
2022-11-14T06:49:37.909Z,4.94
2022-11-14T06:51:04.010Z,4.94
2022-11-14T06:52:26.792Z,4.94
2022-11-14T06:53:49.177Z,4.94
2022-11-14T06:55:11.374Z,4.96
2022-11-14T06:56:35.649Z,4.99
2022-11-14T06:57:56.812Z,5.03
2022-11-14T06:59:19.367Z,5.06
2022-11-14T07:00:40.670Z,5.08
2022-11-14T07:02:02.948Z,5.11
2022-11-14T07:03:25.636Z,5.12
2022-11-14T07:04:47.921Z,5.13
2022-11-14T07:06:10.851Z,5.13
2022-11-14T07:07:34.294Z,5.12
2022-11-14T07:08:57.312Z,5.10
2022-11-14T07:10:19.578Z,5.10
2022-11-14T07:11:45.570Z,5.10
2022-11-14T07:13:09.749Z,5.10
2022-11-14T07:14:32.200Z,5.10
2022-11-14T07:15:55.155Z,5.09
2022-11-14T07:17:17.533Z,5.12
2022-11-14T07:18:40.090Z,5.17
2022-11-14T07:20:02.332Z,5.21
2022-11-14T07:21:24.547Z,5.24
2022-11-14T07:22:46.719Z,5.27
2022-11-14T07:24:09.319Z,5.28
2022-11-14T07:25:31.511Z,5.30
2022-11-14T07:26:55.513Z,5.31
2022-11-14T07:28:17.861Z,5.32
2022-11-14T07:29:40.277Z,5.36
2022-11-14T07:31:04.659Z,5.39
2022-11-14T07:32:27.046Z,5.40
2022-11-14T07:33:49.661Z,5.41
2022-11-14T07:35:11.831Z,5.41
2022-11-14T07:36:33.999Z,5.44
2022-11-14T07:38:05.762Z,5.45
2022-11-14T07:39:28.439Z,5.46
2022-11-14T07:40:59.874Z,5.51
2022-11-14T07:42:23.990Z,5.53
2022-11-14T07:43:46.345Z,5.59
2022-11-14T07:45:09.778Z,5.62
2022-11-14T07:46:31.951Z,5.62
2022-11-14T07:47:56.962Z,5.65
2022-11-14T07:49:19.188Z,5.68
2022-11-14T07:50:41.562Z,5.76
2022-11-14T07:52:03.790Z,5.82
2022-11-14T07:53:26.190Z,5.87
2022-11-14T07:54:48.769Z,5.92
2022-11-14T07:56:11.463Z,5.92
2022-11-14T07:57:40.328Z,5.92
2022-11-14T07:59:04.159Z,5.94
2022-11-14T08:00:25.640Z,5.97
2022-11-14T08:01:48.172Z,5.99
2022-11-14T08:03:11.136Z,5.99
2022-11-14T08:04:33.304Z,5.99
2022-11-14T08:06:02.161Z,6.02
2022-11-14T08:07:24.652Z,6.02
2022-11-14T08:08:47.080Z,6.03
2022-11-14T08:10:11.570Z,6.03
2022-11-14T08:11:49.311Z,6.04
2022-11-14T08:14:55.834Z,6.05
2022-11-14T08:16:18.350Z,6.06
2022-11-14T08:17:40.862Z,6.07
2022-11-14T08:19:03.299Z,6.09
2022-11-14T08:20:26.443Z,6.12
2022-11-14T08:21:48.632Z,6.14
2022-11-14T08:23:11.729Z,6.16
2022-11-14T08:24:33.853Z,6.19
2022-11-14T08:25:56.410Z,6.26
2022-11-14T08:27:18.890Z,6.33
2022-11-14T08:28:42.530Z,6.38
2022-11-14T08:30:05.091Z,6.41
2022-11-14T08:31:27.429Z,6.45
2022-11-14T08:32:50.000Z,6.44
2022-11-14T08:34:12.474Z,6.46
2022-11-14T08:35:35.041Z,6.46
2022-11-14T08:36:58.539Z,6.43
2022-11-14T08:38:20.942Z,6.44
2022-11-14T08:39:43.508Z,6.45
2022-11-14T08:41:07.037Z,6.45
2022-11-14T08:42:29.339Z,6.45
2022-11-14T08:43:53.342Z,6.46
2022-11-14T08:45:15.868Z,6.47
2022-11-14T08:46:38.047Z,6.50
2022-11-14T08:48:00.486Z,6.54
2022-11-14T08:49:23.073Z,6.57
2022-11-14T08:50:45.532Z,6.60
2022-11-14T08:52:12.328Z,6.64
2022-11-14T08:53:37.731Z,6.70
2022-11-14T08:55:00.460Z,6.75
2022-11-14T08:56:24.227Z,6.78
2022-11-14T08:57:49.444Z,6.80
2022-11-14T08:59:14.019Z,6.88
2022-11-14T09:00:36.001Z,6.92
2022-11-14T09:01:58.468Z,6.91
2022-11-14T09:03:20.685Z,6.94
2022-11-14T09:04:43.046Z,6.98
2022-11-14T09:06:05.461Z,7.00
2022-11-14T09:07:29.247Z,6.99
2022-11-14T09:08:51.691Z,6.99
2022-11-14T09:10:13.996Z,7.00
2022-11-14T09:11:36.799Z,7.04
2022-11-14T09:13:00.418Z,7.09
2022-11-14T09:14:24.480Z,7.12
2022-11-14T09:15:47.071Z,7.16
2022-11-14T09:17:09.608Z,7.17
2022-11-14T09:18:33.102Z,7.17
2022-11-14T09:19:56.081Z,7.19
2022-11-14T09:21:18.478Z,7.22
2022-11-14T09:22:41.402Z,7.25
2022-11-14T09:24:04.033Z,7.27
2022-11-14T09:25:27.781Z,7.30
2022-11-14T09:26:55.201Z,7.34
2022-11-14T09:28:18.965Z,7.38
2022-11-14T09:29:42.872Z,7.38
2022-11-14T09:31:07.243Z,7.41
2022-11-14T09:32:29.871Z,7.46
2022-11-14T09:33:52.298Z,7.49
2022-11-14T09:35:15.180Z,7.49
2022-11-14T09:36:37.533Z,7.50
2022-11-14T09:38:03.550Z,7.51
2022-11-14T09:39:25.923Z,7.56
2022-11-14T09:41:03.541Z,7.69
2022-11-14T09:42:36.710Z,7.77
2022-11-14T09:44:17.758Z,7.80
2022-11-14T09:45:48.630Z,7.83
2022-11-14T09:47:18.082Z,7.89
2022-11-14T09:48:42.849Z,7.94
2022-11-14T09:50:09.167Z,7.98
2022-11-14T09:51:33.388Z,7.98
2022-11-14T09:52:58.151Z,7.95
2022-11-14T09:54:23.325Z,7.87
2022-11-14T09:55:45.751Z,7.87
2022-11-14T09:57:16.121Z,7.89
2022-11-14T09:58:38.161Z,7.90
2022-11-14T10:00:00.398Z,7.93
2022-11-14T10:01:32.550Z,8.00
2022-11-14T10:03:05.130Z,8.01
2022-11-14T10:04:38.860Z,8.08
2022-11-14T10:06:23.724Z,8.21
2022-11-14T10:07:54.877Z,8.35
2022-11-14T10:09:43.379Z,8.41
2022-11-14T10:11:10.288Z,8.44
2022-11-14T10:12:38.183Z,8.47
2022-11-14T10:14:18.737Z,8.49
2022-11-14T10:15:45.741Z,8.52
2022-11-14T10:17:20.540Z,8.53
2022-11-14T10:18:56.068Z,8.58
2022-11-14T10:20:23.793Z,8.65
2022-11-14T10:21:55.596Z,8.72
2022-11-14T10:23:27.578Z,8.77
2022-11-14T10:25:05.478Z,8.83
2022-11-14T10:26:34.350Z,8.90
2022-11-14T10:28:07.657Z,8.96
2022-11-14T10:29:44.519Z,8.98
2022-11-14T10:31:09.909Z,8.99
2022-11-14T10:32:46.462Z,9.05
2022-11-14T10:34:12.711Z,9.10
2022-11-14T10:35:39.088Z,9.20
2022-11-14T10:37:04.929Z,9.25
2022-11-14T10:38:30.128Z,9.32
2022-11-14T10:39:53.986Z,9.40
2022-11-14T10:41:34.517Z,9.48
2022-11-14T10:43:02.636Z,9.57
2022-11-14T10:44:30.072Z,9.62
2022-11-14T10:45:55.247Z,9.65
2022-11-14T10:47:20.329Z,9.71
2022-11-14T10:48:47.292Z,9.74
2022-11-14T10:50:20.459Z,9.75
2022-11-14T10:51:45.292Z,9.78
2022-11-14T10:53:15.819Z,9.76
2022-11-14T10:54:42.204Z,9.73
2022-11-14T10:56:05.489Z,9.73
2022-11-14T10:57:30.086Z,9.67
2022-11-14T10:58:52.623Z,9.57
2022-11-14T11:00:17.845Z,9.55
2022-11-14T11:01:41.452Z,9.55
2022-11-14T11:03:03.561Z,9.56
2022-11-14T11:04:31.789Z,9.53
2022-11-14T11:05:57.935Z,9.56
2022-11-14T11:07:42.539Z,9.58
2022-11-14T11:09:27.174Z,9.58
2022-11-14T11:11:06.768Z,9.55
2022-11-14T11:12:43.875Z,9.55
2022-11-14T11:14:06.393Z,9.57
2022-11-14T11:15:32.458Z,9.61
2022-11-14T11:17:10.259Z,9.65
2022-11-14T11:18:33.721Z,9.69
2022-11-14T11:20:00.918Z,9.69
2022-11-14T11:21:26.348Z,9.69
2022-11-14T11:22:48.871Z,9.68
2022-11-14T11:24:11.123Z,9.67
2022-11-14T11:25:34.438Z,9.71
2022-11-14T11:27:14.514Z,9.79
2022-11-14T11:28:37.806Z,9.86
2022-11-14T11:30:19.123Z,9.92
2022-11-14T11:31:54.783Z,10.02
2022-11-14T11:33:23.321Z,10.08
2022-11-14T11:34:45.645Z,10.14
2022-11-14T11:36:15.320Z,10.18
2022-11-14T11:37:41.299Z,10.20
2022-11-14T11:39:03.718Z,10.23
2022-11-14T11:40:28.329Z,10.23
2022-11-14T11:43:40.231Z,10.39
2022-11-14T11:45:07.500Z,10.54
2022-11-14T11:46:46.702Z,10.76
2022-11-14T11:48:17.152Z,11.00
2022-11-14T11:49:50.121Z,11.15
2022-11-14T11:51:19.058Z,11.25
2022-11-14T11:52:45.828Z,11.28
2022-11-14T11:54:15.410Z,11.31
2022-11-14T11:55:41.379Z,11.35
2022-11-14T11:57:05.790Z,11.40
2022-11-14T11:58:31.448Z,11.46
2022-11-14T11:59:59.049Z,11.52
2022-11-14T12:01:21.158Z,11.57
2022-11-14T12:02:50.097Z,11.66
2022-11-14T12:04:12.939Z,11.73
2022-11-14T12:05:44.850Z,11.82
2022-11-14T12:07:15.498Z,11.90
2022-11-14T12:08:45.406Z,11.87
2022-11-14T12:10:14.599Z,11.83
2022-11-14T12:11:39.419Z,11.78
2022-11-14T12:13:43.810Z,11.70
2022-11-14T12:15:12.958Z,11.65
2022-11-14T12:17:02.726Z,11.62
2022-11-14T12:18:37.160Z,11.64
2022-11-14T12:20:14.048Z,11.67
2022-11-14T12:21:58.407Z,11.71
2022-11-14T12:23:53.948Z,11.76
2022-11-14T12:25:36.038Z,11.83
2022-11-14T12:27:06.532Z,11.89
2022-11-14T12:28:41.922Z,11.94
2022-11-14T12:30:13.648Z,11.97
2022-11-14T12:31:38.311Z,12.04
2022-11-14T12:33:03.567Z,12.10
2022-11-14T12:34:29.189Z,12.17
2022-11-14T12:35:53.219Z,12.25
2022-11-14T12:37:18.321Z,12.34
2022-11-14T12:38:44.832Z,12.40
2022-11-14T12:40:09.508Z,12.48
2022-11-14T12:41:35.348Z,12.55
2022-11-14T12:42:58.254Z,12.74
2022-11-14T12:44:33.358Z,12.87
2022-11-14T12:46:02.765Z,12.93
2022-11-14T12:47:28.271Z,12.99
2022-11-14T12:48:50.790Z,13.07
2022-11-14T12:50:31.509Z,13.12
2022-11-14T12:51:53.917Z,13.25
2022-11-14T12:53:46.801Z,13.47
2022-11-14T12:55:47.853Z,13.63
2022-11-14T12:57:38.158Z,13.82
2022-11-14T12:59:29.269Z,14.01
2022-11-14T13:01:05.235Z,14.13
2022-11-14T13:03:14.524Z,14.27
2022-11-14T13:04:45.050Z,14.40
2022-11-14T13:06:10.236Z,14.59
2022-11-14T13:07:40.517Z,14.67
2022-11-14T13:09:34.865Z,14.84
2022-11-14T13:10:57.467Z,14.89
2022-11-14T13:12:49.698Z,14.98
2022-11-14T13:14:29.612Z,15.17
2022-11-14T13:16:10.732Z,15.28
2022-11-14T13:17:50.328Z,15.38
2022-11-14T13:19:37.522Z,15.19
2022-11-14T13:21:20.852Z,15.20
2022-11-14T13:22:44.065Z,15.38
2022-11-14T13:24:07.177Z,15.43
2022-11-14T13:25:29.498Z,15.31
2022-11-14T13:26:53.753Z,15.06
2022-11-14T13:28:49.070Z,14.71
2022-11-14T13:30:11.344Z,14.52
2022-11-14T13:31:48.901Z,14.42
2022-11-14T13:33:11.279Z,14.32
2022-11-14T13:34:43.663Z,14.27
2022-11-14T13:36:06.826Z,14.20
2022-11-14T13:37:41.557Z,14.07
2022-11-14T13:39:23.914Z,13.85
2022-11-14T13:40:49.430Z,13.69
2022-11-14T13:42:28.358Z,13.49
2022-11-14T13:44:04.348Z,13.41
2022-11-14T13:45:44.875Z,13.28
2022-11-14T13:47:20.508Z,13.24
2022-11-14T13:49:08.586Z,13.19
2022-11-14T13:50:32.408Z,13.04
2022-11-14T13:51:55.552Z,12.87
2022-11-14T13:53:20.229Z,12.78
2022-11-14T13:54:47.819Z,12.72
2022-11-14T13:56:17.901Z,12.65
2022-11-14T13:57:47.290Z,12.53
2022-11-14T13:59:37.137Z,12.26
2022-11-14T14:01:10.488Z,12.12
2022-11-14T14:02:59.360Z,12.04
2022-11-14T14:04:38.122Z,11.86
2022-11-14T14:06:12.185Z,11.61
2022-11-14T14:07:43.843Z,11.38
2022-11-14T14:09:24.468Z,11.19
2022-11-14T14:10:56.220Z,11.02
2022-11-14T14:12:33.191Z,10.92
2022-11-14T14:14:01.280Z,10.84
2022-11-14T14:15:29.311Z,10.74
2022-11-14T14:16:56.868Z,10.64
2022-11-14T14:18:28.710Z,10.63
2022-11-14T14:20:01.616Z,10.64
2022-11-14T14:21:35.893Z,10.53
2022-11-14T14:23:04.089Z,10.49
2022-11-14T14:24:37.332Z,10.47
2022-11-14T14:26:06.783Z,10.36
2022-11-14T14:27:33.617Z,10.18
2022-11-14T14:29:06.095Z,10.07
2022-11-14T14:30:30.208Z,9.98
2022-11-14T14:31:53.150Z,9.88
2022-11-14T14:33:16.528Z,9.71
2022-11-14T14:34:39.751Z,9.46
2022-11-14T14:36:01.976Z,9.23
2022-11-14T14:37:25.795Z,9.02
2022-11-14T14:38:48.845Z,8.82
2022-11-14T14:40:25.285Z,8.60
2022-11-14T14:41:47.971Z,8.44
2022-11-14T14:43:22.323Z,8.26
2022-11-14T14:44:47.767Z,8.11
2022-11-14T14:46:11.319Z,8.00
2022-11-14T14:47:41.342Z,7.86
2022-11-14T14:49:05.120Z,7.76
2022-11-14T14:50:30.614Z,7.68
2022-11-14T14:51:58.088Z,7.56
2022-11-14T14:53:22.136Z,7.45
2022-11-14T14:54:55.766Z,7.32
2022-11-14T14:56:22.380Z,7.22
2022-11-14T14:57:45.047Z,7.14
2022-11-14T14:59:20.936Z,7.03
2022-11-14T15:00:53.004Z,6.93
2022-11-14T15:02:18.980Z,6.85
2022-11-14T15:03:43.271Z,6.77
2022-11-14T15:05:06.044Z,6.70
2022-11-14T15:06:33.402Z,6.62
2022-11-14T15:07:58.131Z,6.54
2022-11-14T15:09:23.378Z,6.47
2022-11-14T15:10:46.411Z,6.42
2022-11-14T15:12:09.039Z,6.37
2022-11-14T15:13:32.453Z,6.32
2022-11-14T15:14:55.261Z,6.27
2022-11-14T15:16:17.859Z,6.21
2022-11-14T15:17:41.952Z,6.15
2022-11-14T15:19:04.410Z,6.09
2022-11-14T15:20:28.539Z,6.06
2022-11-14T15:22:17.960Z,5.98
2022-11-14T15:23:40.851Z,5.91
2022-11-14T15:25:08.492Z,5.85
2022-11-14T15:26:32.100Z,5.82
2022-11-14T15:27:55.888Z,5.78
2022-11-14T15:29:19.856Z,5.74
2022-11-14T15:30:42.201Z,5.69
2022-11-14T15:32:06.212Z,5.67
2022-11-14T15:33:31.259Z,5.63
2022-11-14T15:35:09.843Z,5.59
2022-11-14T15:36:32.341Z,5.55
2022-11-14T15:38:41.840Z,5.52
2022-11-14T15:39:50.674Z,5.46
2022-11-14T15:41:23.389Z,5.43
2022-11-14T15:42:45.701Z,5.39
2022-11-14T15:44:16.252Z,5.37
2022-11-14T15:45:41.672Z,5.35
2022-11-14T15:47:04.836Z,5.33
2022-11-14T15:48:28.549Z,5.33
2022-11-14T15:49:59.890Z,5.33
2022-11-14T15:51:43.461Z,5.32
2022-11-14T15:53:07.139Z,5.28
2022-11-14T15:54:32.071Z,5.28
2022-11-14T15:55:54.234Z,5.26
2022-11-14T15:57:18.089Z,5.24
2022-11-14T15:58:43.130Z,5.20
2022-11-14T16:00:13.417Z,5.19
2022-11-14T16:01:35.568Z,5.18
2022-11-14T16:02:58.660Z,5.15
2022-11-14T16:04:21.361Z,5.13
2022-11-14T16:05:46.406Z,5.11
2022-11-14T16:07:11.351Z,5.10
2022-11-14T16:08:33.899Z,5.08
2022-11-14T16:09:56.430Z,5.07
2022-11-14T16:11:18.915Z,5.07
2022-11-14T16:12:41.696Z,5.08
2022-11-14T16:14:05.705Z,5.09
2022-11-14T16:15:27.832Z,5.10
2022-11-14T16:16:50.123Z,5.10
2022-11-14T16:18:13.532Z,5.12
2022-11-14T16:19:37.811Z,5.12
2022-11-14T16:21:03.280Z,5.12
2022-11-14T16:22:25.331Z,5.13
2022-11-14T16:23:47.671Z,5.14
2022-11-14T16:25:16.992Z,5.15
2022-11-14T16:26:39.884Z,5.15
2022-11-14T16:28:02.602Z,5.14
2022-11-14T16:29:25.323Z,5.15
2022-11-14T16:30:47.713Z,5.13
2022-11-14T16:32:11.928Z,5.13
2022-11-14T16:33:34.242Z,5.08
2022-11-14T16:34:56.469Z,5.03
2022-11-14T16:36:22.661Z,4.96
2022-11-14T16:37:45.005Z,4.91
2022-11-14T16:39:11.680Z,4.90
2022-11-14T16:40:34.193Z,4.88
2022-11-14T16:42:01.896Z,4.87
2022-11-14T16:43:26.031Z,4.88
2022-11-14T16:44:50.773Z,4.89
2022-11-14T16:46:14.380Z,4.89
2022-11-14T16:47:38.797Z,4.90
2022-11-14T16:49:01.170Z,4.92
2022-11-14T16:50:23.251Z,4.93
2022-11-14T16:51:49.965Z,4.95
2022-11-14T16:53:12.531Z,4.97
2022-11-14T16:54:35.125Z,4.99
2022-11-14T16:55:57.811Z,5.00
2022-11-14T16:57:19.905Z,5.01
2022-11-14T16:58:42.414Z,5.02
2022-11-14T17:00:05.748Z,5.00
2022-11-14T17:01:28.158Z,5.00
2022-11-14T17:02:50.260Z,4.99
2022-11-14T17:04:12.821Z,4.98
2022-11-14T17:05:35.421Z,4.97
2022-11-14T17:06:59.722Z,4.97
2022-11-14T17:08:21.833Z,4.97
2022-11-14T17:09:44.783Z,4.99
2022-11-14T17:11:09.909Z,4.99
2022-11-14T17:12:32.820Z,4.99
2022-11-14T17:13:56.375Z,5.00
2022-11-14T17:15:19.288Z,5.02
2022-11-14T17:16:41.537Z,5.05
2022-11-14T17:18:04.492Z,5.07
2022-11-14T17:19:27.142Z,5.09
2022-11-14T17:20:49.421Z,5.10
2022-11-14T17:22:14.259Z,5.11
2022-11-14T17:23:36.879Z,5.12
2022-11-14T17:24:59.564Z,5.14
2022-11-14T17:26:21.718Z,5.15
2022-11-14T17:27:44.244Z,5.18
2022-11-14T17:29:13.056Z,5.19
2022-11-14T17:30:35.260Z,5.18
2022-11-14T17:31:57.530Z,5.19
2022-11-14T17:33:19.891Z,5.20
2022-11-14T17:34:42.200Z,5.20
2022-11-14T17:36:06.018Z,5.22
2022-11-14T17:37:30.470Z,5.25
2022-11-14T17:38:52.819Z,5.26
2022-11-14T17:40:15.808Z,5.29
2022-11-14T17:41:38.903Z,5.29
2022-11-14T17:43:01.274Z,5.31
2022-11-14T17:44:23.717Z,5.33
2022-11-14T17:45:56.514Z,5.34
2022-11-14T17:47:19.750Z,5.34
2022-11-14T17:48:43.141Z,5.32
2022-11-14T17:50:07.162Z,5.32
2022-11-14T17:51:29.801Z,5.33
2022-11-14T17:52:53.796Z,5.32
2022-11-14T17:54:16.394Z,5.34
2022-11-14T17:55:38.943Z,5.34
2022-11-14T17:57:01.713Z,5.34
2022-11-14T17:58:28.501Z,5.32
2022-11-14T17:59:50.738Z,5.31
2022-11-14T18:01:16.703Z,5.30
2022-11-14T18:02:39.609Z,5.31
2022-11-14T18:04:06.107Z,5.29
2022-11-14T18:05:29.359Z,5.28
2022-11-14T18:06:51.767Z,5.27
2022-11-14T18:08:15.612Z,5.27
2022-11-14T18:09:38.313Z,5.27
2022-11-14T18:11:02.031Z,5.27
2022-11-14T18:12:24.479Z,5.27
2022-11-14T18:13:49.453Z,5.28
2022-11-14T18:15:16.350Z,5.28
2022-11-14T18:17:10.354Z,5.28
2022-11-14T18:18:24.076Z,5.29
2022-11-14T18:19:46.825Z,5.30
2022-11-14T18:21:10.689Z,5.32
2022-11-14T18:22:33.290Z,5.33
2022-11-14T18:23:59.133Z,5.34
2022-11-14T18:25:21.252Z,5.34
2022-11-14T18:26:43.670Z,5.36
2022-11-14T18:28:06.230Z,5.37
2022-11-14T18:29:28.833Z,5.39
2022-11-14T18:30:57.691Z,5.42
2022-11-14T18:32:20.510Z,5.42
2022-11-14T18:33:43.540Z,5.40
2022-11-14T18:35:07.003Z,5.41
2022-11-14T18:36:29.591Z,5.40
2022-11-14T18:37:52.163Z,5.40
2022-11-14T18:39:15.839Z,5.41
2022-11-14T18:40:38.011Z,5.41
2022-11-14T18:42:01.606Z,5.39
2022-11-14T18:43:24.074Z,5.39
2022-11-14T18:44:46.581Z,5.38
2022-11-14T18:46:09.958Z,5.35
2022-11-14T18:47:32.667Z,5.34
2022-11-14T18:48:57.325Z,5.32
2022-11-14T18:50:19.531Z,5.30
2022-11-14T18:51:42.403Z,5.27
2022-11-14T18:53:05.114Z,5.27
2022-11-14T18:54:29.053Z,5.27
2022-11-14T18:55:53.367Z,5.26
2022-11-14T18:57:16.233Z,5.26
2022-11-14T18:58:40.438Z,5.26